Birch 4 — VREG7 — position and weather

sailwx.info

Track history (hours):
 
Tides and Currents Weather Stations Pressure Air Temp Water Temp Dewpoint Dewpoint Depression Visibility Wind Speed Wind Dir Waves Ship Positions

Birch 4

Last reported at 2014-Aug-18 01:08 UTC. Time now 2014-Aug-21 08:16 UTC.
Position N 38°20' E 121°31'.

Length 160 m; draft 9.5 m.

Type: Ship. MMSI: 477111100.

Date/timePositionNaut miles runAvg speedWind from/ knotsBaromVisibWave heightAir tempDewpointWater temp
2014-Aug-18 01:08N 38°20' E 121°31'911.7
2014-Aug-18 00:20N 38°23' E 121°20'13911.7
2014-Aug-17 12:24N 38°49' E 118°25'1410.7
2014-Aug-17 11:04N 38°54' E 118°08'510.2
2014-Aug-17 10:33N 38°56' E 118°02'10 9.7
2014-Aug-17 09:34N 38°58' E 117°50'6 5.7
2014-Aug-17 08:32N 39°03' E 117°46'0 0.0
2014-Aug-17 07:29N 39°03' E 117°46'0 0.0
2014-Aug-17 06:32N 39°03' E 117°46'0 0.0
2014-Aug-17 05:32N 39°03' E 117°46'0 0.0
2014-Aug-17 04:32N 39°03' E 117°46'0 0.0
2014-Aug-17 03:32N 39°03' E 117°46'0 0.0
2014-Aug-17 02:28N 39°03' E 117°46'0 0.0
2014-Aug-17 01:32N 39°03' E 117°46'0 0.0
2014-Aug-17 00:32N 39°03' E 117°46'0 0.0
2014-Aug-16 23:32N 39°03' E 117°46'0 0.0
2014-Aug-16 22:32N 39°03' E 117°46'0 0.0
2014-Aug-16 21:32N 39°03' E 117°46'0 0.0
2014-Aug-16 20:32N 39°03' E 117°46'0 0.0
2014-Aug-16 19:31N 39°03' E 117°46'0 0.0
2014-Aug-16 18:29N 39°03' E 117°46'0 0.0
2014-Aug-16 17:32N 39°03' E 117°46'0 0.0
2014-Aug-16 16:22N 39°03' E 117°46'0 0.0
2014-Aug-16 15:32N 39°03' E 117°46'0 0.0
2014-Aug-16 14:32N 39°03' E 117°46'0 0.0
2014-Aug-16 13:32N 39°03' E 117°46'0 0.0
2014-Aug-16 12:31N 39°03' E 117°46'0 0.0
2014-Aug-16 11:32N 39°03' E 117°46'0 0.0
2014-Aug-16 10:32N 39°03' E 117°46'0 0.0
2014-Aug-16 09:29N 39°03' E 117°46'0 0.0
2014-Aug-16 08:20N 39°03' E 117°46'0 0.0
2014-Aug-16 07:32N 39°03' E 117°46'0 0.0
2014-Aug-16 06:32N 39°03' E 117°46'0 0.0
2014-Aug-16 05:29N 39°03' E 117°46'0 0.0
2014-Aug-16 04:31N 39°03' E 117°46'0 0.0
2014-Aug-16 03:32N 39°03' E 117°46'0 0.0
2014-Aug-16 02:32N 39°03' E 117°46'0 0.0
2014-Aug-16 01:31N 39°03' E 117°46'0 0.0
2014-Aug-16 00:31N 39°03' E 117°46'0 0.0
2014-Aug-15 23:32N 39°03' E 117°46'0 0.0
2014-Aug-15 22:32N 39°03' E 117°46'0 0.0
2014-Aug-15 21:31N 39°03' E 117°46'0 0.0
2014-Aug-15 20:29N 39°03' E 117°46'0 0.0
2014-Aug-15 19:32N 39°03' E 117°46'0 0.0
2014-Aug-15 18:32N 39°03' E 117°46'0 0.0
2014-Aug-15 17:29N 39°03' E 117°46'0 0.0
2014-Aug-15 16:32N 39°03' E 117°46'0 0.0
2014-Aug-15 15:26N 39°03' E 117°46'0 0.0
2014-Aug-15 14:32N 39°03' E 117°46'0 0.0
2014-Aug-15 13:32N 39°03' E 117°46'0 0.0
2014-Aug-15 12:32N 39°03' E 117°46'1 1.4
2014-Aug-15 11:33N 39°02' E 117°46'7 7.2
2014-Aug-15 10:33N 38°57' E 117°54'6 6.2
2014-Aug-15 09:33N 38°54' E 118°00'6 5.7
2014-Aug-15 08:33N 38°55' E 117°53'6 6.1
2014-Aug-15 07:31N 38°57' E 117°45'0 0.0
2014-Aug-15 06:31N 38°57' E 117°45'0 0.0
2014-Aug-15 05:31N 38°57' E 117°45'0 0.0
2014-Aug-15 04:31N 38°57' E 117°45'0 0.0
2014-Aug-15 03:16N 38°57' E 117°45'0 0.0
2014-Aug-15 02:28N 38°57' E 117°45'0 0.0
2014-Aug-15 01:28N 38°57' E 117°45'0 0.0
2014-Aug-15 00:25N 38°57' E 117°45'0 0.0
2014-Aug-14 23:25N 38°57' E 117°45'0 0.0
2014-Aug-14 22:31N 38°57' E 117°45'0 0.0
2014-Aug-14 21:31N 38°57' E 117°45'0 0.0
2014-Aug-14 20:31N 38°57' E 117°45'0 0.0
2014-Aug-14 19:31N 38°57' E 117°45'0 0.0
2014-Aug-14 18:31N 38°57' E 117°45'0 0.0
2014-Aug-14 17:28N 38°57' E 117°45'0 0.0
2014-Aug-14 16:31N 38°57' E 117°45'0 0.0
2014-Aug-14 15:31N 38°57' E 117°45'0 0.0
2014-Aug-14 14:31N 38°57' E 117°45'0 0.0
2014-Aug-14 13:31N 38°57' E 117°45'0 0.0
2014-Aug-14 12:22N 38°57' E 117°45'0 0.0
2014-Aug-14 11:31N 38°57' E 117°45'0 0.0
2014-Aug-14 10:28N 38°57' E 117°45'0 0.0
2014-Aug-14 09:28N 38°57' E 117°45'0 0.0
2014-Aug-14 08:28N 38°57' E 117°45'0 0.0
2014-Aug-14 07:31N 38°57' E 117°45'0 0.0
2014-Aug-14 06:31N 38°57' E 117°45'0 0.0
2014-Aug-14 05:31N 38°57' E 117°45'0 0.0
2014-Aug-14 04:31N 38°57' E 117°45'0 0.0
2014-Aug-14 03:31N 38°57' E 117°45'0 0.0
2014-Aug-14 02:28N 38°57' E 117°45'0 0.0
2014-Aug-14 01:31N 38°57' E 117°45'0 0.0
2014-Aug-14 00:19N 38°57' E 117°45'0 0.0
2014-Aug-13 23:28N 38°57' E 117°45'0 0.0
2014-Aug-13 22:31N 38°57' E 117°45'0 0.0
2014-Aug-13 21:28N 38°57' E 117°45'0 0.0
2014-Aug-13 20:25N 38°57' E 117°45'0 0.0
2014-Aug-13 19:31N 38°57' E 117°45'0 0.0
2014-Aug-13 18:28N 38°57' E 117°45'0 0.0
2014-Aug-13 17:28N 38°57' E 117°45'0 0.0
2014-Aug-13 16:28N 38°57' E 117°45'0 0.0
2014-Aug-13 15:28N 38°57' E 117°45'0 0.0
2014-Aug-13 14:31N 38°57' E 117°45'0 0.0
2014-Aug-13 13:31N 38°57' E 117°45'0 0.0
2014-Aug-13 12:25N 38°57' E 117°45'0 0.0
2014-Aug-13 11:31N 38°57' E 117°45'0 0.0
2014-Aug-13 10:31N 38°57' E 117°45'0 0.0
2014-Aug-13 09:31N 38°57' E 117°45'0 0.0
2014-Aug-13 08:31N 38°57' E 117°45'0 0.0
2014-Aug-13 07:31N 38°57' E 117°45'0 0.0
2014-Aug-13 06:31N 38°57' E 117°45'0 0.0
2014-Aug-13 05:28N 38°57' E 117°45'0 0.0
2014-Aug-13 04:31N 38°57' E 117°45'0 0.0
2014-Aug-13 03:28N 38°57' E 117°45'0 0.0
2014-Aug-13 02:31N 38°57' E 117°45'0 0.0
2014-Aug-13 01:31N 38°57' E 117°45'0 0.0
2014-Aug-13 00:31N 38°57' E 117°45'0 0.0
2014-Aug-12 23:31N 38°57' E 117°45'0 0.0
2014-Aug-12 22:28N 38°57' E 117°45'0 0.0
2014-Aug-12 21:31N 38°57' E 117°45'0 0.0
2014-Aug-12 20:22N 38°57' E 117°45'0 0.0
2014-Aug-12 19:28N 38°57' E 117°45'0 0.0
2014-Aug-12 18:31N 38°57' E 117°45'0 0.0
2014-Aug-12 17:31N 38°57' E 117°45'0 0.0
2014-Aug-12 16:28N 38°57' E 117°45'0 0.0
2014-Aug-12 15:28N 38°57' E 117°45'0 0.0
2014-Aug-12 14:31N 38°57' E 117°45'0 0.0
2014-Aug-12 13:28N 38°57' E 117°45'0 0.0
2014-Aug-12 12:31N 38°57' E 117°45'0 0.0
2014-Aug-12 11:04N 38°57' E 117°45'0 0.0
2014-Aug-12 10:31N 38°57' E 117°45'0 0.0
2014-Aug-12 09:25N 38°57' E 117°45'0 0.0
2014-Aug-12 08:28N 38°57' E 117°45'0 0.0
2014-Aug-12 07:28N 38°57' E 117°45'0 0.0
2014-Aug-12 06:22N 38°57' E 117°45'0 0.0
2014-Aug-12 05:31N 38°57' E 117°45'0 0.0
2014-Aug-12 04:31N 38°57' E 117°45'0 0.0
2014-Aug-12 03:31N 38°57' E 117°45'0 0.0
2014-Aug-12 02:31N 38°57' E 117°45'0 0.0
2014-Aug-12 01:31N 38°57' E 117°45'0 0.0
2014-Aug-12 00:28N 38°57' E 117°45'0 0.0
2014-Aug-11 23:28N 38°57' E 117°45'0 0.0
2014-Aug-11 22:31N 38°57' E 117°45'0 0.0
2014-Aug-11 21:28N 38°57' E 117°45'0 0.0
2014-Aug-11 20:31N 38°57' E 117°45'0 0.0
2014-Aug-11 19:10N 38°57' E 117°45'0 0.0
2014-Aug-11 18:16N 38°57' E 117°45'0 0.0
2014-Aug-11 17:31N 38°57' E 117°45'0 0.0
2014-Aug-11 16:28N 38°57' E 117°45'0 0.0
2014-Aug-11 15:25N 38°57' E 117°45'0 0.0
2014-Aug-11 14:31N 38°57' E 117°45'0 0.0
2014-Aug-11 13:31N 38°57' E 117°45'0 0.0
2014-Aug-11 12:28N 38°57' E 117°45'0 0.0
2014-Aug-11 11:31N 38°57' E 117°45'0 0.0
2014-Aug-11 10:31N 38°57' E 117°45'0 0.0
2014-Aug-11 09:31N 38°57' E 117°45'0 0.0
2014-Aug-11 08:31N 38°57' E 117°45'0 0.0
2014-Aug-11 07:31N 38°57' E 117°45'0 0.0
2014-Aug-11 06:31N 38°57' E 117°45'0 0.0
2014-Aug-11 05:31N 38°57' E 117°45'0 0.0
2014-Aug-11 04:31N 38°57' E 117°45'0 0.0
2014-Aug-11 03:31N 38°57' E 117°45'0 0.0
2014-Aug-11 02:31N 38°57' E 117°45'0 0.0
2014-Aug-11 01:31N 38°57' E 117°45'0 0.0
2014-Aug-11 00:31N 38°57' E 117°45'0 0.0
2014-Aug-10 23:31N 38°57' E 117°45'0 0.0
2014-Aug-10 22:31N 38°57' E 117°45'0 0.0
2014-Aug-10 21:31N 38°57' E 117°45'0 0.0
2014-Aug-10 20:31N 38°57' E 117°45'0 0.0
2014-Aug-10 19:31N 38°57' E 117°45'0 0.0
2014-Aug-10 18:31N 38°57' E 117°45'0 0.0
2014-Aug-10 17:31N 38°57' E 117°45'0 0.0
2014-Aug-10 16:31N 38°57' E 117°45'0 0.0
2014-Aug-10 15:25N 38°57' E 117°45'0 0.0
2014-Aug-10 14:28N 38°57' E 117°45'0 0.0
2014-Aug-10 13:31N 38°57' E 117°45'0 0.0
2014-Aug-10 12:31N 38°57' E 117°45'0 0.0
2014-Aug-10 11:28N 38°57' E 117°45'0 0.0
2014-Aug-10 10:31N 38°57' E 117°46'4 3.9
2014-Aug-10 09:33N 38°56' E 117°50'10 8.7
2014-Aug-10 08:28N 38°52' E 118°01'9 9.9
2014-Aug-10 07:33N 38°53' E 118°13'152 8.9
2014-Aug-09 14:30N 38°24' E 121°23'4611.5
2014-Aug-09 10:33N 38°01' E 122°13'2411.9
2014-Aug-09 08:31N 37°46' E 122°38'1312.7
2014-Aug-09 07:28N 37°35' E 122°46'1512.9
2014-Aug-09 06:20N 37°20' E 122°52'12610.6
2014-Aug-08 18:30N 36°02' E 120°49'10 5.1
2014-Aug-08 16:33N 35°58' E 120°38'10 9.8
2014-Aug-08 15:33N 35°60' E 120°25'8 8.2
2014-Aug-08 14:33N 36°02' E 120°16'4 2.9
2014-Aug-08 13:17N 36°06' E 120°15'0 0.0
2014-Aug-08 12:29N 36°06' E 120°15'0 0.0
2014-Aug-08 10:05N 36°06' E 120°15'0 0.0
2014-Aug-08 06:30N 36°06' E 120°15'0 0.0
2014-Aug-08 05:05N 36°06' E 120°15'0 0.0
2014-Aug-08 04:29N 36°06' E 120°15'0 0.0
2014-Aug-08 03:29N 36°06' E 120°15'0 0.0
2014-Aug-08 02:23N 36°06' E 120°15'  
Track history (hours):
 
Tides and Currents Weather Stations Pressure Air Temp Water Temp Dewpoint Dewpoint Depression Visibility Wind Speed Wind Dir Waves Ship Positions

Birch 4

Last reported at 2014-Aug-18 01:08 UTC. Time now 2014-Aug-21 08:16 UTC.
Position N 38°20' E 121°31'.

Length 160 m; draft 9.5 m.

Type: Ship. MMSI: 477111100.

Date/timePositionNaut miles runAvg speedWind from/ knotsBaromVisibWave heightAir tempDewpointWater temp
2014-Aug-18 01:08N 38°20' E 121°31'911.7
2014-Aug-18 00:20N 38°23' E 121°20'13911.7
2014-Aug-17 12:24N 38°49' E 118°25'1410.7
2014-Aug-17 11:04N 38°54' E 118°08'510.2
2014-Aug-17 10:33N 38°56' E 118°02'10 9.7
2014-Aug-17 09:34N 38°58' E 117°50'6 5.7
2014-Aug-17 08:32N 39°03' E 117°46'0 0.0
2014-Aug-17 07:29N 39°03' E 117°46'0 0.0
2014-Aug-17 06:32N 39°03' E 117°46'0 0.0
2014-Aug-17 05:32N 39°03' E 117°46'0 0.0
2014-Aug-17 04:32N 39°03' E 117°46'0 0.0
2014-Aug-17 03:32N 39°03' E 117°46'0 0.0
2014-Aug-17 02:28N 39°03' E 117°46'0 0.0
2014-Aug-17 01:32N 39°03' E 117°46'0 0.0
2014-Aug-17 00:32N 39°03' E 117°46'0 0.0
2014-Aug-16 23:32N 39°03' E 117°46'0 0.0
2014-Aug-16 22:32N 39°03' E 117°46'0 0.0
2014-Aug-16 21:32N 39°03' E 117°46'0 0.0
2014-Aug-16 20:32N 39°03' E 117°46'0 0.0
2014-Aug-16 19:31N 39°03' E 117°46'0 0.0
2014-Aug-16 18:29N 39°03' E 117°46'0 0.0
2014-Aug-16 17:32N 39°03' E 117°46'0 0.0
2014-Aug-16 16:22N 39°03' E 117°46'0 0.0
2014-Aug-16 15:32N 39°03' E 117°46'0 0.0
2014-Aug-16 14:32N 39°03' E 117°46'0 0.0
2014-Aug-16 13:32N 39°03' E 117°46'0 0.0
2014-Aug-16 12:31N 39°03' E 117°46'0 0.0
2014-Aug-16 11:32N 39°03' E 117°46'0 0.0
2014-Aug-16 10:32N 39°03' E 117°46'0 0.0
2014-Aug-16 09:29N 39°03' E 117°46'0 0.0
2014-Aug-16 08:20N 39°03' E 117°46'0 0.0
2014-Aug-16 07:32N 39°03' E 117°46'0 0.0
2014-Aug-16 06:32N 39°03' E 117°46'0 0.0
2014-Aug-16 05:29N 39°03' E 117°46'0 0.0
2014-Aug-16 04:31N 39°03' E 117°46'0 0.0
2014-Aug-16 03:32N 39°03' E 117°46'0 0.0
2014-Aug-16 02:32N 39°03' E 117°46'0 0.0
2014-Aug-16 01:31N 39°03' E 117°46'0 0.0
2014-Aug-16 00:31N 39°03' E 117°46'0 0.0
2014-Aug-15 23:32N 39°03' E 117°46'0 0.0
2014-Aug-15 22:32N 39°03' E 117°46'0 0.0
2014-Aug-15 21:31N 39°03' E 117°46'0 0.0
2014-Aug-15 20:29N 39°03' E 117°46'0 0.0
2014-Aug-15 19:32N 39°03' E 117°46'0 0.0
2014-Aug-15 18:32N 39°03' E 117°46'0 0.0
2014-Aug-15 17:29N 39°03' E 117°46'0 0.0
2014-Aug-15 16:32N 39°03' E 117°46'0 0.0
2014-Aug-15 15:26N 39°03' E 117°46'0 0.0
2014-Aug-15 14:32N 39°03' E 117°46'0 0.0
2014-Aug-15 13:32N 39°03' E 117°46'0 0.0
2014-Aug-15 12:32N 39°03' E 117°46'1 1.4
2014-Aug-15 11:33N 39°02' E 117°46'7 7.2
2014-Aug-15 10:33N 38°57' E 117°54'6 6.2
2014-Aug-15 09:33N 38°54' E 118°00'6 5.7
2014-Aug-15 08:33N 38°55' E 117°53'6 6.1
2014-Aug-15 07:31N 38°57' E 117°45'0 0.0
2014-Aug-15 06:31N 38°57' E 117°45'0 0.0
2014-Aug-15 05:31N 38°57' E 117°45'0 0.0
2014-Aug-15 04:31N 38°57' E 117°45'0 0.0
2014-Aug-15 03:16N 38°57' E 117°45'0 0.0
2014-Aug-15 02:28N 38°57' E 117°45'0 0.0
2014-Aug-15 01:28N 38°57' E 117°45'0 0.0
2014-Aug-15 00:25N 38°57' E 117°45'0 0.0
2014-Aug-14 23:25N 38°57' E 117°45'0 0.0
2014-Aug-14 22:31N 38°57' E 117°45'0 0.0
2014-Aug-14 21:31N 38°57' E 117°45'0 0.0
2014-Aug-14 20:31N 38°57' E 117°45'0 0.0
2014-Aug-14 19:31N 38°57' E 117°45'0 0.0
2014-Aug-14 18:31N 38°57' E 117°45'0 0.0
2014-Aug-14 17:28N 38°57' E 117°45'0 0.0
2014-Aug-14 16:31N 38°57' E 117°45'0 0.0
2014-Aug-14 15:31N 38°57' E 117°45'0 0.0
2014-Aug-14 14:31N 38°57' E 117°45'0 0.0
2014-Aug-14 13:31N 38°57' E 117°45'0 0.0
2014-Aug-14 12:22N 38°57' E 117°45'0 0.0
2014-Aug-14 11:31N 38°57' E 117°45'0 0.0
2014-Aug-14 10:28N 38°57' E 117°45'0 0.0
2014-Aug-14 09:28N 38°57' E 117°45'0 0.0
2014-Aug-14 08:28N 38°57' E 117°45'0 0.0
2014-Aug-14 07:31N 38°57' E 117°45'0 0.0
2014-Aug-14 06:31N 38°57' E 117°45'0 0.0
2014-Aug-14 05:31N 38°57' E 117°45'0 0.0
2014-Aug-14 04:31N 38°57' E 117°45'0 0.0
2014-Aug-14 03:31N 38°57' E 117°45'0 0.0
2014-Aug-14 02:28N 38°57' E 117°45'0 0.0
2014-Aug-14 01:31N 38°57' E 117°45'0 0.0
2014-Aug-14 00:19N 38°57' E 117°45'0 0.0
2014-Aug-13 23:28N 38°57' E 117°45'0 0.0
2014-Aug-13 22:31N 38°57' E 117°45'0 0.0
2014-Aug-13 21:28N 38°57' E 117°45'0 0.0
2014-Aug-13 20:25N 38°57' E 117°45'0 0.0
2014-Aug-13 19:31N 38°57' E 117°45'0 0.0
2014-Aug-13 18:28N 38°57' E 117°45'0 0.0
2014-Aug-13 17:28N 38°57' E 117°45'0 0.0
2014-Aug-13 16:28N 38°57' E 117°45'0 0.0
2014-Aug-13 15:28N 38°57' E 117°45'0 0.0
2014-Aug-13 14:31N 38°57' E 117°45'0 0.0
2014-Aug-13 13:31N 38°57' E 117°45'0 0.0
2014-Aug-13 12:25N 38°57' E 117°45'0 0.0
2014-Aug-13 11:31N 38°57' E 117°45'0 0.0
2014-Aug-13 10:31N 38°57' E 117°45'0 0.0
2014-Aug-13 09:31N 38°57' E 117°45'0 0.0
2014-Aug-13 08:31N 38°57' E 117°45'0 0.0
2014-Aug-13 07:31N 38°57' E 117°45'0 0.0
2014-Aug-13 06:31N 38°57' E 117°45'0 0.0
2014-Aug-13 05:28N 38°57' E 117°45'0 0.0
2014-Aug-13 04:31N 38°57' E 117°45'0 0.0
2014-Aug-13 03:28N 38°57' E 117°45'0 0.0
2014-Aug-13 02:31N 38°57' E 117°45'0 0.0
2014-Aug-13 01:31N 38°57' E 117°45'0 0.0
2014-Aug-13 00:31N 38°57' E 117°45'0 0.0
2014-Aug-12 23:31N 38°57' E 117°45'0 0.0
2014-Aug-12 22:28N 38°57' E 117°45'0 0.0
2014-Aug-12 21:31N 38°57' E 117°45'0 0.0
2014-Aug-12 20:22N 38°57' E 117°45'0 0.0
2014-Aug-12 19:28N 38°57' E 117°45'0 0.0
2014-Aug-12 18:31N 38°57' E 117°45'0 0.0
2014-Aug-12 17:31N 38°57' E 117°45'0 0.0
2014-Aug-12 16:28N 38°57' E 117°45'0 0.0
2014-Aug-12 15:28N 38°57' E 117°45'0 0.0
2014-Aug-12 14:31N 38°57' E 117°45'0 0.0
2014-Aug-12 13:28N 38°57' E 117°45'0 0.0
2014-Aug-12 12:31N 38°57' E 117°45'0 0.0
2014-Aug-12 11:04N 38°57' E 117°45'0 0.0
2014-Aug-12 10:31N 38°57' E 117°45'0 0.0
2014-Aug-12 09:25N 38°57' E 117°45'0 0.0
2014-Aug-12 08:28N 38°57' E 117°45'0 0.0
2014-Aug-12 07:28N 38°57' E 117°45'0 0.0
2014-Aug-12 06:22N 38°57' E 117°45'0 0.0
2014-Aug-12 05:31N 38°57' E 117°45'0 0.0
2014-Aug-12 04:31N 38°57' E 117°45'0 0.0
2014-Aug-12 03:31N 38°57' E 117°45'0 0.0
2014-Aug-12 02:31N 38°57' E 117°45'0 0.0
2014-Aug-12 01:31N 38°57' E 117°45'0 0.0
2014-Aug-12 00:28N 38°57' E 117°45'0 0.0
2014-Aug-11 23:28N 38°57' E 117°45'0 0.0
2014-Aug-11 22:31N 38°57' E 117°45'0 0.0
2014-Aug-11 21:28N 38°57' E 117°45'0 0.0
2014-Aug-11 20:31N 38°57' E 117°45'0 0.0
2014-Aug-11 19:10N 38°57' E 117°45'0 0.0
2014-Aug-11 18:16N 38°57' E 117°45'0 0.0
2014-Aug-11 17:31N 38°57' E 117°45'0 0.0
2014-Aug-11 16:28N 38°57' E 117°45'0 0.0
2014-Aug-11 15:25N 38°57' E 117°45'0 0.0
2014-Aug-11 14:31N 38°57' E 117°45'0 0.0
2014-Aug-11 13:31N 38°57' E 117°45'0 0.0
2014-Aug-11 12:28N 38°57' E 117°45'0 0.0
2014-Aug-11 11:31N 38°57' E 117°45'0 0.0
2014-Aug-11 10:31N 38°57' E 117°45'0 0.0
2014-Aug-11 09:31N 38°57' E 117°45'0 0.0
2014-Aug-11 08:31N 38°57' E 117°45'0 0.0
2014-Aug-11 07:31N 38°57' E 117°45'0 0.0
2014-Aug-11 06:31N 38°57' E 117°45'0 0.0
2014-Aug-11 05:31N 38°57' E 117°45'0 0.0
2014-Aug-11 04:31N 38°57' E 117°45'0 0.0
2014-Aug-11 03:31N 38°57' E 117°45'0 0.0
2014-Aug-11 02:31N 38°57' E 117°45'0 0.0
2014-Aug-11 01:31N 38°57' E 117°45'0 0.0
2014-Aug-11 00:31N 38°57' E 117°45'0 0.0
2014-Aug-10 23:31N 38°57' E 117°45'0 0.0
2014-Aug-10 22:31N 38°57' E 117°45'0 0.0
2014-Aug-10 21:31N 38°57' E 117°45'0 0.0
2014-Aug-10 20:31N 38°57' E 117°45'0 0.0
2014-Aug-10 19:31N 38°57' E 117°45'0 0.0
2014-Aug-10 18:31N 38°57' E 117°45'0 0.0
2014-Aug-10 17:31N 38°57' E 117°45'0 0.0
2014-Aug-10 16:31N 38°57' E 117°45'0 0.0
2014-Aug-10 15:25N 38°57' E 117°45'0 0.0
2014-Aug-10 14:28N 38°57' E 117°45'0 0.0
2014-Aug-10 13:31N 38°57' E 117°45'0 0.0
2014-Aug-10 12:31N 38°57' E 117°45'0 0.0
2014-Aug-10 11:28N 38°57' E 117°45'0 0.0
2014-Aug-10 10:31N 38°57' E 117°46'4 3.9
2014-Aug-10 09:33N 38°56' E 117°50'10 8.7
2014-Aug-10 08:28N 38°52' E 118°01'9 9.9
2014-Aug-10 07:33N 38°53' E 118°13'152 8.9
2014-Aug-09 14:30N 38°24' E 121°23'4611.5
2014-Aug-09 10:33N 38°01' E 122°13'2411.9
2014-Aug-09 08:31N 37°46' E 122°38'1312.7
2014-Aug-09 07:28N 37°35' E 122°46'1512.9
2014-Aug-09 06:20N 37°20' E 122°52'12610.6
2014-Aug-08 18:30N 36°02' E 120°49'10 5.1
2014-Aug-08 16:33N 35°58' E 120°38'10 9.8
2014-Aug-08 15:33N 35°60' E 120°25'8 8.2
2014-Aug-08 14:33N 36°02' E 120°16'4 2.9
2014-Aug-08 13:17N 36°06' E 120°15'0 0.0
2014-Aug-08 12:29N 36°06' E 120°15'0 0.0
2014-Aug-08 10:05N 36°06' E 120°15'0 0.0
2014-Aug-08 06:30N 36°06' E 120°15'0 0.0
2014-Aug-08 05:05N 36°06' E 120°15'0 0.0
2014-Aug-08 04:29N 36°06' E 120°15'0 0.0
2014-Aug-08 03:29N 36°06' E 120°15'0 0.0
2014-Aug-08 02:23N 36°06' E 120°15'  

Dump ship's entire track history